createdAt,value
2023-01-06T00:00:25.373Z,69.82
2023-01-06T00:02:52.133Z,70.96
2023-01-06T00:05:18.680Z,69.75
2023-01-06T00:07:45.136Z,71.00
2023-01-06T00:10:12.652Z,70.83
2023-01-06T00:12:39.144Z,70.75
2023-01-06T00:15:05.964Z,70.49
2023-01-06T00:17:32.472Z,70.21
2023-01-06T00:19:58.912Z,69.63
2023-01-06T00:22:25.402Z,69.27
2023-01-06T00:24:51.934Z,70.36
2023-01-06T00:27:18.381Z,69.95
2023-01-06T00:29:44.839Z,68.77
2023-01-06T00:32:11.498Z,69.59
2023-01-06T00:34:37.945Z,69.03
2023-01-06T00:37:04.443Z,68.90
2023-01-06T00:39:32.665Z,69.73
2023-01-06T00:42:05.261Z,70.05
2023-01-06T00:44:36.183Z,69.23
2023-01-06T00:47:06.847Z,69.45
2023-01-06T00:49:33.504Z,68.27
2023-01-06T00:52:00.070Z,68.70
2023-01-06T00:54:26.579Z,69.98
2023-01-06T00:56:53.803Z,68.63
2023-01-06T00:59:25.199Z,68.42
2023-01-06T01:01:52.999Z,70.64
2023-01-06T01:04:20.107Z,70.35
2023-01-06T01:06:47.361Z,68.71
2023-01-06T01:09:15.303Z,68.74
2023-01-06T01:12:01.044Z,68.93
2023-01-06T01:14:27.539Z,70.61
2023-01-06T01:16:54.005Z,69.69
2023-01-06T01:19:21.218Z,69.27
2023-01-06T01:21:47.805Z,69.77
2023-01-06T01:24:14.326Z,68.93
2023-01-06T01:26:40.857Z,68.83
2023-01-06T01:29:07.432Z,68.92
2023-01-06T01:31:33.965Z,69.56
2023-01-06T01:34:02.014Z,68.49
2023-01-06T01:36:28.557Z,68.56
2023-01-06T01:38:56.064Z,69.96
2023-01-06T01:41:23.197Z,69.33
2023-01-06T01:43:52.737Z,68.63
2023-01-06T01:46:28.333Z,69.88
2023-01-06T01:48:57.150Z,69.24
2023-01-06T01:51:27.470Z,70.61
2023-01-06T01:53:56.453Z,70.06
2023-01-06T01:56:25.225Z,69.77
2023-01-06T01:59:00.884Z,69.39
2023-01-06T02:01:28.273Z,68.84
2023-01-06T02:03:55.279Z,68.14
2023-01-06T02:06:23.290Z,69.80
2023-01-06T02:09:08.432Z,69.55
2023-01-06T02:11:37.945Z,69.93
2023-01-06T02:14:10.534Z,69.99
2023-01-06T02:16:55.863Z,70.08
2023-01-06T02:19:22.381Z,70.02
2023-01-06T02:21:54.625Z,69.68
2023-01-06T02:24:35.566Z,69.15
2023-01-06T02:27:20.183Z,68.16
2023-01-06T02:29:50.329Z,69.03
2023-01-06T02:32:22.859Z,67.99
2023-01-06T02:35:10.453Z,69.01
2023-01-06T02:37:36.883Z,67.50
2023-01-06T02:40:18.318Z,68.30
2023-01-06T02:43:10.316Z,68.39
2023-01-06T02:45:44.101Z,69.18
2023-01-06T02:48:17.523Z,68.75
2023-01-06T02:50:47.970Z,69.41
2023-01-06T02:53:29.755Z,68.01
2023-01-06T02:55:57.440Z,67.63
2023-01-06T02:58:31.572Z,69.31
2023-01-06T03:01:08.455Z,67.86
2023-01-06T03:03:37.532Z,68.88
2023-01-06T03:06:09.798Z,68.45
2023-01-06T03:08:36.834Z,69.00
2023-01-06T03:11:03.458Z,67.31
2023-01-06T03:13:39.377Z,67.34
2023-01-06T03:16:06.269Z,67.64
2023-01-06T03:18:33.052Z,67.81
2023-01-06T03:21:02.388Z,68.36
2023-01-06T03:23:28.844Z,67.34
2023-01-06T03:25:55.453Z,67.37
2023-01-06T03:28:21.988Z,67.60
2023-01-06T03:30:53.579Z,67.45
2023-01-06T03:33:20.024Z,67.14
2023-01-06T03:35:49.373Z,68.16
2023-01-06T03:38:21.876Z,67.40
2023-01-06T03:40:52.429Z,68.66
2023-01-06T03:43:27.448Z,68.11
2023-01-06T03:46:13.045Z,67.59
2023-01-06T03:48:47.913Z,67.76
2023-01-06T03:51:14.496Z,67.77
2023-01-06T03:53:50.909Z,68.08
2023-01-06T03:56:30.165Z,67.52
2023-01-06T03:58:59.691Z,68.70
2023-01-06T04:01:26.832Z,67.82
2023-01-06T04:03:55.290Z,67.84
2023-01-06T04:06:21.858Z,67.41
2023-01-06T04:08:48.351Z,68.26
2023-01-06T04:11:33.204Z,67.42
2023-01-06T04:14:00.052Z,67.36
2023-01-06T04:16:26.805Z,67.43
2023-01-06T04:18:54.110Z,67.86
2023-01-06T04:21:20.636Z,67.73
2023-01-06T04:23:47.116Z,67.79
2023-01-06T04:26:14.379Z,67.74
2023-01-06T04:28:40.846Z,67.90
2023-01-06T04:31:09.218Z,67.84
2023-01-06T04:33:36.521Z,67.96
2023-01-06T04:36:03.134Z,67.32
2023-01-06T04:38:29.647Z,67.94
2023-01-06T04:40:58.083Z,67.92
2023-01-06T04:43:24.569Z,67.04
2023-01-06T04:45:51.890Z,67.35
2023-01-06T04:48:18.408Z,68.23
2023-01-06T04:50:44.959Z,67.06
2023-01-06T04:53:12.644Z,66.97
2023-01-06T04:55:39.848Z,67.61
2023-01-06T04:58:06.290Z,67.59
2023-01-06T05:00:32.931Z,67.76
2023-01-06T05:03:00.999Z,67.65
2023-01-06T05:05:27.429Z,67.66
2023-01-06T05:07:54.936Z,66.66
2023-01-06T05:10:22.387Z,67.55
2023-01-06T05:12:48.837Z,66.99
2023-01-06T05:15:15.335Z,67.07
2023-01-06T05:17:41.935Z,66.15
2023-01-06T05:20:08.678Z,66.48
2023-01-06T05:22:35.115Z,67.15
2023-01-06T05:25:03.665Z,66.77
2023-01-06T05:27:30.129Z,67.01
2023-01-06T05:29:56.587Z,67.25
2023-01-06T05:32:25.888Z,66.97
2023-01-06T05:34:52.493Z,66.67
2023-01-06T05:37:18.990Z,66.33
2023-01-06T05:39:45.492Z,65.98
2023-01-06T05:42:12.002Z,66.36
2023-01-06T05:44:40.281Z,66.71
2023-01-06T05:47:08.287Z,67.01
2023-01-06T05:49:34.793Z,65.97
2023-01-06T05:52:01.333Z,66.21
2023-01-06T05:54:27.850Z,66.58
2023-01-06T05:56:54.382Z,66.54
2023-01-06T05:59:20.830Z,66.27
2023-01-06T06:01:47.892Z,66.68
2023-01-06T06:04:14.567Z,66.50
2023-01-06T06:06:41.040Z,66.53
2023-01-06T06:09:07.559Z,66.35
2023-01-06T06:11:34.060Z,66.51
2023-01-06T06:14:00.545Z,65.70
2023-01-06T06:16:28.828Z,66.16
2023-01-06T06:18:56.417Z,66.71
2023-01-06T06:21:24.492Z,66.76
2023-01-06T06:23:52.428Z,66.66
2023-01-06T06:26:18.945Z,66.66
2023-01-06T06:28:45.503Z,65.52
2023-01-06T06:31:13.977Z,65.87
2023-01-06T06:33:41.042Z,65.78
2023-01-06T06:36:12.152Z,65.46
2023-01-06T06:38:40.122Z,64.93
2023-01-06T06:41:06.603Z,65.38
2023-01-06T06:43:33.529Z,65.24
2023-01-06T06:46:00.097Z,65.01
2023-01-06T06:48:30.837Z,65.03
2023-01-06T06:50:58.372Z,64.80
2023-01-06T06:53:25.729Z,65.23
2023-01-06T06:55:52.289Z,64.49
2023-01-06T06:58:18.822Z,65.15
2023-01-06T07:00:45.406Z,64.84
2023-01-06T07:03:11.871Z,65.30
2023-01-06T07:05:38.614Z,65.12
2023-01-06T07:08:05.192Z,64.73
2023-01-06T07:10:31.658Z,65.31
2023-01-06T07:12:58.142Z,64.61
2023-01-06T07:15:24.767Z,64.52
2023-01-06T07:17:51.250Z,64.77
2023-01-06T07:20:20.735Z,64.23
2023-01-06T07:22:47.237Z,64.58
2023-01-06T07:25:13.725Z,64.57
2023-01-06T07:27:40.215Z,64.27
2023-01-06T07:30:07.802Z,63.69
2023-01-06T07:32:34.258Z,64.59
2023-01-06T07:35:00.721Z,63.51
2023-01-06T07:37:27.959Z,63.64
2023-01-06T07:39:54.458Z,63.75
2023-01-06T07:42:24.067Z,64.23
2023-01-06T07:44:50.552Z,64.70
2023-01-06T07:47:17.099Z,64.06
2023-01-06T07:49:43.624Z,64.10
2023-01-06T07:52:12.295Z,64.68
2023-01-06T07:54:38.932Z,63.78
2023-01-06T07:57:08.216Z,64.24
2023-01-06T07:59:34.834Z,64.04
2023-01-06T08:02:01.467Z,64.48
2023-01-06T08:04:28.070Z,64.38
2023-01-06T08:06:55.372Z,64.22
2023-01-06T08:09:21.867Z,64.15
2023-01-06T08:11:48.349Z,64.00
2023-01-06T08:14:14.992Z,65.23
2023-01-06T08:16:41.470Z,64.39
2023-01-06T08:19:08.028Z,63.77
2023-01-06T08:21:34.506Z,64.25
2023-01-06T08:24:01.107Z,64.25
2023-01-06T08:26:27.574Z,63.72
2023-01-06T08:28:55.967Z,64.34
2023-01-06T08:31:22.899Z,63.74
2023-01-06T08:33:49.727Z,63.29
2023-01-06T08:36:17.729Z,64.14
2023-01-06T08:38:44.691Z,64.25
2023-01-06T08:41:12.011Z,64.44
2023-01-06T08:43:45.701Z,64.44
2023-01-06T08:46:15.111Z,63.51
2023-01-06T08:48:41.717Z,63.26
2023-01-06T08:51:13.996Z,63.42
2023-01-06T08:53:40.586Z,62.82
2023-01-06T08:56:17.900Z,62.51
2023-01-06T08:58:44.647Z,62.63
2023-01-06T09:01:19.344Z,63.33
2023-01-06T09:03:45.903Z,62.34
2023-01-06T09:06:12.455Z,63.10
2023-01-06T09:08:40.027Z,63.13
2023-01-06T09:11:07.733Z,63.11
2023-01-06T09:13:34.905Z,63.01
2023-01-06T09:16:02.332Z,61.99
2023-01-06T09:18:28.836Z,62.20
2023-01-06T09:20:55.340Z,63.53
2023-01-06T09:23:22.967Z,62.00
2023-01-06T09:25:50.173Z,60.19
2023-01-06T09:28:16.787Z,60.83
2023-01-06T09:30:43.397Z,59.79
2023-01-06T09:33:09.881Z,58.92
2023-01-06T09:35:36.337Z,58.52
2023-01-06T09:38:03.772Z,58.43
2023-01-06T09:40:37.222Z,57.06
2023-01-06T09:43:25.253Z,57.77
2023-01-06T09:45:56.644Z,57.49
2023-01-06T09:48:29.233Z,56.68
2023-01-06T09:51:04.892Z,55.64
2023-01-06T09:53:41.250Z,57.25
2023-01-06T09:56:13.225Z,57.32
2023-01-06T09:58:43.921Z,57.09
2023-01-06T10:01:19.042Z,56.82
2023-01-06T10:03:47.084Z,58.05
2023-01-06T10:06:30.131Z,57.57
2023-01-06T10:09:15.792Z,54.64
2023-01-06T10:11:55.843Z,53.22
2023-01-06T10:14:22.314Z,52.18
2023-01-06T10:17:07.331Z,54.58
2023-01-06T10:19:36.703Z,53.68
2023-01-06T10:22:03.131Z,52.84
2023-01-06T10:24:50.736Z,50.62
2023-01-06T10:27:20.213Z,48.01
2023-01-06T10:29:48.796Z,46.25
2023-01-06T10:32:19.105Z,45.88
2023-01-06T10:34:48.682Z,45.20
2023-01-06T10:37:28.648Z,44.80
2023-01-06T10:40:00.095Z,43.30
2023-01-06T10:43:04.088Z,44.72
2023-01-06T10:45:38.671Z,43.87
2023-01-06T10:48:07.524Z,43.53
2023-01-06T10:50:34.881Z,42.61
2023-01-06T10:53:01.454Z,42.69
2023-01-06T10:55:36.742Z,42.38
2023-01-06T10:58:26.440Z,42.80
2023-01-06T11:01:08.619Z,41.81
2023-01-06T11:03:35.550Z,42.13
2023-01-06T11:06:23.225Z,42.33
2023-01-06T11:08:49.798Z,42.88
2023-01-06T11:11:27.673Z,44.35
2023-01-06T11:14:01.780Z,45.01
2023-01-06T11:16:30.608Z,45.43
2023-01-06T11:18:58.830Z,45.77
2023-01-06T11:21:37.724Z,46.89
2023-01-06T11:24:30.548Z,46.96
2023-01-06T11:26:58.467Z,47.90
2023-01-06T11:29:29.708Z,47.15
2023-01-06T11:31:58.007Z,47.90
2023-01-06T11:34:27.983Z,47.31
2023-01-06T11:36:55.054Z,47.90
2023-01-06T11:39:26.492Z,48.68
2023-01-06T11:41:54.178Z,50.19
2023-01-06T11:44:32.713Z,50.23
2023-01-06T11:47:03.959Z,49.97
2023-01-06T11:49:46.237Z,50.88
2023-01-06T11:52:27.410Z,51.10
2023-01-06T11:55:08.806Z,52.35
2023-01-06T11:57:36.150Z,53.81
2023-01-06T12:00:09.428Z,53.01
2023-01-06T12:02:49.925Z,53.97
2023-01-06T12:05:21.355Z,52.96
2023-01-06T12:07:52.113Z,52.03
2023-01-06T12:10:21.993Z,51.88
2023-01-06T12:12:48.951Z,52.52
2023-01-06T12:15:20.258Z,52.56
2023-01-06T12:17:50.895Z,51.33
2023-01-06T12:20:23.635Z,51.85
2023-01-06T12:23:01.114Z,52.74
2023-01-06T12:25:43.275Z,52.98
2023-01-06T12:28:14.141Z,55.42
2023-01-06T12:30:47.730Z,55.92
2023-01-06T12:33:23.501Z,57.12
2023-01-06T12:35:53.105Z,58.80
2023-01-06T12:38:55.227Z,58.78
2023-01-06T12:41:42.599Z,59.14
2023-01-06T12:44:09.112Z,60.36
2023-01-06T12:46:50.008Z,60.47
2023-01-06T12:49:32.297Z,60.41
2023-01-06T12:52:02.552Z,61.30
2023-01-06T12:54:31.127Z,61.75
2023-01-06T12:57:00.296Z,61.64
2023-01-06T12:59:29.473Z,62.84
2023-01-06T13:02:16.264Z,63.29
2023-01-06T13:05:04.453Z,62.44
2023-01-06T13:07:37.086Z,63.77
2023-01-06T13:10:40.313Z,62.87
2023-01-06T13:13:06.781Z,63.65
2023-01-06T13:15:34.367Z,64.55
2023-01-06T13:18:05.429Z,64.03
2023-01-06T13:20:35.045Z,64.10
2023-01-06T13:23:10.325Z,65.17
2023-01-06T13:25:46.984Z,65.08
2023-01-06T13:28:15.480Z,65.17
2023-01-06T13:30:45.026Z,65.15
2023-01-06T13:33:11.526Z,64.84
2023-01-06T13:35:56.790Z,65.15
2023-01-06T13:38:26.256Z,65.57
2023-01-06T13:40:55.222Z,66.24
2023-01-06T13:43:24.673Z,65.95
2023-01-06T13:45:56.557Z,65.88
2023-01-06T13:48:24.767Z,66.15
2023-01-06T13:50:51.755Z,65.97
2023-01-06T13:53:20.553Z,66.36
2023-01-06T13:55:47.093Z,66.43
2023-01-06T13:58:25.875Z,66.62
2023-01-06T14:01:06.681Z,66.61
2023-01-06T14:03:33.697Z,67.22
2023-01-06T14:06:00.960Z,67.42
2023-01-06T14:08:29.423Z,67.76
2023-01-06T14:11:16.393Z,67.79
2023-01-06T14:13:44.155Z,67.43
2023-01-06T14:16:12.068Z,67.04
2023-01-06T14:18:40.406Z,67.63
2023-01-06T14:21:16.006Z,67.55
2023-01-06T14:24:00.993Z,67.79
2023-01-06T14:26:46.752Z,68.18
2023-01-06T14:29:31.766Z,68.42
2023-01-06T14:31:58.229Z,67.94
2023-01-06T14:34:24.971Z,68.23
2023-01-06T14:36:51.955Z,68.41
2023-01-06T14:39:21.211Z,68.09
2023-01-06T14:42:07.972Z,68.03
2023-01-06T14:44:36.783Z,68.69
2023-01-06T14:47:06.807Z,68.80
2023-01-06T14:49:40.885Z,68.71
2023-01-06T14:52:10.913Z,68.12
2023-01-06T14:54:39.166Z,68.15
2023-01-06T14:57:06.225Z,68.62
2023-01-06T14:59:32.730Z,68.46
2023-01-06T15:02:04.859Z,68.98
2023-01-06T15:04:35.828Z,68.91
2023-01-06T15:07:06.099Z,68.98
2023-01-06T15:09:33.067Z,68.08
2023-01-06T15:11:59.633Z,68.52
2023-01-06T15:14:26.070Z,67.70
2023-01-06T15:16:53.273Z,67.96
2023-01-06T15:19:21.553Z,68.06
2023-01-06T15:21:48.931Z,67.77
2023-01-06T15:24:20.545Z,68.18
2023-01-06T15:26:47.603Z,68.12
2023-01-06T15:29:19.045Z,68.18
2023-01-06T15:31:46.756Z,68.50
2023-01-06T15:34:16.305Z,68.27
2023-01-06T15:36:44.341Z,68.31
2023-01-06T15:39:15.795Z,68.24
2023-01-06T15:41:43.393Z,68.52
2023-01-06T15:44:23.251Z,68.51
2023-01-06T15:46:52.707Z,68.36
2023-01-06T15:49:28.444Z,67.84
2023-01-06T15:51:58.561Z,68.36
2023-01-06T15:54:26.090Z,68.17
2023-01-06T15:56:52.664Z,68.11
2023-01-06T15:59:20.590Z,68.38
2023-01-06T16:01:51.240Z,68.96
2023-01-06T16:04:18.242Z,68.23
2023-01-06T16:06:45.581Z,68.58
2023-01-06T16:09:27.311Z,68.61
2023-01-06T16:12:05.862Z,69.33
2023-01-06T16:14:40.370Z,68.71
2023-01-06T16:17:11.380Z,68.60
2023-01-06T16:19:44.743Z,68.62
2023-01-06T16:22:23.628Z,68.69
2023-01-06T16:24:51.471Z,68.70
2023-01-06T16:27:22.865Z,69.06
2023-01-06T16:30:08.386Z,68.96
2023-01-06T16:32:36.604Z,69.24
2023-01-06T16:35:07.236Z,68.83
2023-01-06T16:37:36.938Z,68.83
2023-01-06T16:40:03.692Z,68.90
2023-01-06T16:42:41.663Z,68.84
2023-01-06T16:45:26.746Z,68.61
2023-01-06T16:47:55.851Z,69.02
2023-01-06T16:50:25.169Z,69.12
2023-01-06T16:52:55.263Z,69.05
2023-01-06T16:55:22.445Z,68.85
2023-01-06T16:57:49.896Z,68.66
2023-01-06T17:00:18.357Z,68.90
2023-01-06T17:02:45.349Z,68.89
2023-01-06T17:05:25.371Z,68.97
2023-01-06T17:07:53.034Z,69.15
2023-01-06T17:10:20.561Z,69.01
2023-01-06T17:13:10.724Z,68.86
2023-01-06T17:15:37.211Z,69.29
2023-01-06T17:18:05.185Z,69.63
2023-01-06T17:20:34.255Z,69.42
2023-01-06T17:23:00.740Z,69.69
2023-01-06T17:25:28.598Z,69.87
2023-01-06T17:27:55.131Z,70.28
2023-01-06T17:30:21.960Z,70.54
2023-01-06T17:32:48.518Z,70.26
2023-01-06T17:35:20.967Z,70.90
2023-01-06T17:37:47.468Z,70.10
2023-01-06T17:40:18.915Z,70.68
2023-01-06T17:42:48.512Z,69.94
2023-01-06T17:45:22.858Z,70.47
2023-01-06T17:47:50.156Z,70.42
2023-01-06T17:50:19.782Z,70.45
2023-01-06T17:53:06.757Z,70.39
2023-01-06T17:55:44.841Z,70.72
2023-01-06T17:58:21.867Z,70.31
2023-01-06T18:00:48.594Z,70.38
2023-01-06T18:03:19.365Z,70.07
2023-01-06T18:05:46.101Z,70.01
2023-01-06T18:08:14.518Z,69.91
2023-01-06T18:10:46.353Z,69.96
2023-01-06T18:13:23.454Z,69.46
2023-01-06T18:15:54.556Z,69.78
2023-01-06T18:18:36.724Z,69.54
2023-01-06T18:21:15.835Z,70.11
2023-01-06T18:23:46.724Z,69.45
2023-01-06T18:26:43.616Z,69.45
2023-01-06T18:29:12.967Z,68.83
2023-01-06T18:31:40.114Z,68.18
2023-01-06T18:34:25.047Z,68.42
2023-01-06T18:36:54.225Z,68.33
2023-01-06T18:39:31.075Z,68.42
2023-01-06T18:42:12.691Z,68.94
2023-01-06T18:44:41.800Z,68.42
2023-01-06T18:47:15.684Z,68.59
2023-01-06T18:49:42.503Z,68.71
2023-01-06T18:52:27.564Z,69.19
2023-01-06T18:54:58.850Z,69.23
2023-01-06T19:00:30.960Z,69.66
2023-01-06T19:03:11.855Z,69.97
2023-01-06T19:05:38.904Z,69.42
2023-01-06T19:08:19.857Z,69.19
2023-01-06T19:10:48.334Z,69.26
2023-01-06T19:13:26.280Z,69.43
2023-01-06T19:15:53.630Z,69.92
2023-01-06T19:18:21.050Z,69.82
2023-01-06T19:20:47.868Z,69.53
2023-01-06T19:23:17.885Z,69.61
2023-01-06T19:25:51.157Z,70.15
2023-01-06T19:28:30.185Z,70.28
2023-01-06T19:31:02.674Z,69.82
2023-01-06T19:33:29.133Z,70.03
2023-01-06T19:36:01.908Z,69.67
2023-01-06T19:38:40.086Z,69.77
2023-01-06T19:41:10.433Z,68.86
2023-01-06T19:43:37.400Z,69.08
2023-01-06T19:46:22.928Z,69.05
2023-01-06T19:48:50.086Z,69.57
2023-01-06T19:51:24.342Z,69.42
2023-01-06T19:53:53.415Z,69.49
2023-01-06T19:56:22.726Z,69.06
2023-01-06T19:58:51.854Z,69.05
2023-01-06T20:01:18.488Z,68.84
2023-01-06T20:03:46.027Z,68.93
2023-01-06T20:06:13.969Z,68.96
2023-01-06T20:08:43.866Z,69.15
2023-01-06T20:11:10.872Z,68.88
2023-01-06T20:13:38.958Z,69.20
2023-01-06T20:16:05.795Z,69.58
2023-01-06T20:18:32.313Z,69.42
2023-01-06T20:20:59.065Z,69.47
2023-01-06T20:23:25.566Z,69.21
2023-01-06T20:25:52.073Z,69.26
2023-01-06T20:28:18.653Z,69.24
2023-01-06T20:30:46.450Z,69.11
2023-01-06T20:33:13.310Z,69.59
2023-01-06T20:35:40.029Z,69.61
2023-01-06T20:38:06.552Z,69.44
2023-01-06T20:40:33.237Z,69.41
2023-01-06T20:43:00.046Z,69.22
2023-01-06T20:45:27.145Z,69.22
2023-01-06T20:47:55.404Z,69.11
2023-01-06T20:50:21.993Z,69.27
2023-01-06T20:52:48.466Z,69.37
2023-01-06T20:55:15.497Z,69.19
2023-01-06T20:57:42.003Z,69.50
2023-01-06T21:00:10.966Z,69.08
2023-01-06T21:02:37.662Z,68.90
2023-01-06T21:05:07.403Z,68.96
2023-01-06T21:07:34.089Z,68.96
2023-01-06T21:10:00.869Z,69.05
2023-01-06T21:12:28.133Z,68.92
2023-01-06T21:14:54.578Z,68.84
2023-01-06T21:17:21.105Z,68.97
2023-01-06T21:19:48.080Z,68.70
2023-01-06T21:22:14.592Z,68.76
2023-01-06T21:24:41.101Z,68.76
2023-01-06T21:27:07.612Z,68.67
2023-01-06T21:29:34.075Z,68.53
2023-01-06T21:32:00.566Z,68.64
2023-01-06T21:34:27.957Z,68.64
2023-01-06T21:36:54.402Z,68.69
2023-01-06T21:39:20.890Z,68.72
2023-01-06T21:42:07.113Z,68.72
2023-01-06T21:44:33.712Z,68.57
2023-01-06T21:47:01.387Z,68.64
2023-01-06T21:49:27.934Z,68.85
2023-01-06T21:51:55.220Z,69.25
2023-01-06T21:54:21.760Z,68.82
2023-01-06T21:56:48.997Z,69.10
2023-01-06T21:59:15.531Z,68.99
2023-01-06T22:01:42.128Z,68.84
2023-01-06T22:04:09.502Z,68.75
2023-01-06T22:06:37.188Z,68.22
2023-01-06T22:09:05.878Z,69.05
2023-01-06T22:11:33.164Z,68.59
2023-01-06T22:14:00.051Z,68.45
2023-01-06T22:16:26.916Z,68.27
2023-01-06T22:18:54.860Z,68.71
2023-01-06T22:21:21.948Z,68.56
2023-01-06T22:23:48.917Z,68.66
2023-01-06T22:26:17.692Z,68.54
2023-01-06T22:28:44.181Z,68.85
2023-01-06T22:31:10.669Z,68.79
2023-01-06T22:33:40.313Z,68.39
2023-01-06T22:36:07.146Z,68.50
2023-01-06T22:38:33.843Z,68.47
2023-01-06T22:41:01.117Z,68.46
2023-01-06T22:43:27.568Z,68.69
2023-01-06T22:45:59.630Z,68.01
2023-01-06T22:48:26.187Z,68.44
2023-01-06T22:51:10.830Z,68.06
2023-01-06T22:53:37.395Z,68.13
2023-01-06T22:56:05.410Z,67.88
2023-01-06T22:58:35.828Z,67.73
2023-01-06T23:01:02.725Z,67.57
2023-01-06T23:03:29.558Z,67.43
2023-01-06T23:05:57.000Z,67.86
2023-01-06T23:08:24.253Z,68.03
2023-01-06T23:10:50.726Z,67.90
2023-01-06T23:13:17.288Z,67.91
2023-01-06T23:15:46.886Z,67.52
2023-01-06T23:18:13.408Z,67.59
2023-01-06T23:20:39.852Z,68.06
2023-01-06T23:23:07.124Z,67.26
2023-01-06T23:25:33.637Z,67.60
2023-01-06T23:28:00.099Z,67.14
2023-01-06T23:30:27.300Z,67.09
2023-01-06T23:32:53.778Z,67.18
2023-01-06T23:35:20.234Z,67.07
2023-01-06T23:37:46.697Z,67.25
2023-01-06T23:40:13.311Z,67.70
2023-01-06T23:42:48.016Z,67.57
2023-01-06T23:45:16.181Z,67.62
2023-01-06T23:47:42.625Z,67.55
2023-01-06T23:50:09.320Z,67.70
2023-01-06T23:52:36.337Z,67.81
2023-01-06T23:55:02.873Z,67.83
2023-01-06T23:57:29.343Z,67.74
2023-01-06T23:59:55.824Z,67.47
